sensor_id;sensor_type;location;lat;lon;timestamp;pressure;altitude;pressure_sealevel;temperature;humidity
550;BME280;20066;48.764;9.176;2024-03-23T00:52:45;97454.47;;;13.13;51.87
550;BME280;20066;48.764;9.176;2024-03-23T00:55:11;97449.47;;;13.32;51.57
550;BME280;20066;48.764;9.176;2024-03-23T00:57:38;97448.91;;;13.57;50.88
550;BME280;20066;48.764;9.176;2024-03-23T01:00:04;97441.13;;;13.42;51.33
550;BME280;20066;48.764;9.176;2024-03-23T01:02:32;97440.69;;;13.60;51.02
550;BME280;20066;48.764;9.176;2024-03-23T01:04:58;97436.78;;;12.93;52.71
550;BME280;20066;48.764;9.176;2024-03-23T01:07:25;97441.78;;;12.74;52.89
550;BME280;20066;48.764;9.176;2024-03-23T01:09:51;97438.94;;;12.82;52.93
550;BME280;20066;48.764;9.176;2024-03-23T01:12:18;97436.81;;;13.29;51.85
550;BME280;20066;48.764;9.176;2024-03-23T01:14:44;97437.25;;;13.43;51.50
550;BME280;20066;48.764;9.176;2024-03-23T01:17:11;97425.25;;;13.44;51.53
550;BME280;20066;48.764;9.176;2024-03-23T01:19:37;97421.53;;;13.71;50.84
550;BME280;20066;48.764;9.176;2024-03-23T01:22:05;97415.22;;;13.77;50.40
550;BME280;20066;48.764;9.176;2024-03-23T01:24:30;97407.94;;;12.07;55.14
550;BME280;20066;48.764;9.176;2024-03-23T01:26:57;97408.47;;;12.81;53.91
550;BME280;20066;48.764;9.176;2024-03-23T01:29:23;97408.91;;;13.16;52.94
550;BME280;20066;48.764;9.176;2024-03-23T01:31:50;97410.56;;;13.45;51.85
550;BME280;20066;48.764;9.176;2024-03-23T01:34:17;97395.97;;;13.43;51.41
550;BME280;20066;48.764;9.176;2024-03-23T01:36:44;97404.66;;;13.50;51.55
550;BME280;20066;48.764;9.176;2024-03-23T01:39:12;97392.69;;;13.51;51.52
550;BME280;20066;48.764;9.176;2024-03-23T01:41:40;97397.31;;;13.67;51.44
550;BME280;20066;48.764;9.176;2024-03-23T01:44:08;97402.13;;;13.43;52.14
550;BME280;20066;48.764;9.176;2024-03-23T01:46:38;97393.09;;;13.66;51.77
550;BME280;20066;48.764;9.176;2024-03-23T01:49:05;97385.56;;;12.69;53.98
550;BME280;20066;48.764;9.176;2024-03-23T01:51:33;97380.50;;;13.11;53.12
550;BME280;20066;48.764;9.176;2024-03-23T01:54:00;97372.16;;;14.15;50.72
550;BME280;20066;48.764;9.176;2024-03-23T01:56:33;97361.00;;;14.42;49.80
550;BME280;20066;48.764;9.176;2024-03-23T01:59:04;97362.09;;;14.16;49.90
550;BME280;20066;48.764;9.176;2024-03-23T02:01:32;97362.00;;;13.74;51.48
550;BME280;20066;48.764;9.176;2024-03-23T02:03:58;97358.63;;;13.54;52.14
550;BME280;20066;48.764;9.176;2024-03-23T02:06:25;97338.84;;;14.06;51.00
550;BME280;20066;48.764;9.176;2024-03-23T02:08:51;97331.72;;;13.18;52.93
550;BME280;20066;48.764;9.176;2024-03-23T02:11:18;97346.22;;;14.02;51.16
550;BME280;20066;48.764;9.176;2024-03-23T02:13:43;97352.63;;;14.65;49.75
550;BME280;20066;48.764;9.176;2024-03-23T02:16:11;97352.25;;;15.18;48.23
550;BME280;20066;48.764;9.176;2024-03-23T02:18:36;97356.00;;;15.08;48.37
550;BME280;20066;48.764;9.176;2024-03-23T02:21:03;97345.00;;;14.48;49.90
550;BME280;20066;48.764;9.176;2024-03-23T02:23:29;97338.66;;;14.25;50.92
550;BME280;20066;48.764;9.176;2024-03-23T02:25:56;97328.22;;;13.82;51.71
550;BME280;20066;48.764;9.176;2024-03-23T02:28:21;97329.19;;;14.05;51.37
550;BME280;20066;48.764;9.176;2024-03-23T02:30:49;97327.56;;;14.49;50.68
550;BME280;20066;48.764;9.176;2024-03-23T02:33:15;97333.69;;;14.91;49.67
550;BME280;20066;48.764;9.176;2024-03-23T02:35:46;97331.72;;;14.79;49.66
550;BME280;20066;48.764;9.176;2024-03-23T02:38:12;97334.00;;;14.67;50.19
550;BME280;20066;48.764;9.176;2024-03-23T02:40:39;97326.06;;;14.48;51.09
550;BME280;20066;48.764;9.176;2024-03-23T02:43:05;97337.56;;;14.64;50.28
550;BME280;20066;48.764;9.176;2024-03-23T02:45:32;97329.88;;;14.50;50.96
550;BME280;20066;48.764;9.176;2024-03-23T02:47:58;97315.75;;;13.56;53.84
550;BME280;20066;48.764;9.176;2024-03-23T02:50:24;97323.97;;;13.36;54.41
550;BME280;20066;48.764;9.176;2024-03-23T02:52:51;97312.72;;;13.22;54.92
550;BME280;20066;48.764;9.176;2024-03-23T02:55:17;97300.66;;;13.42;54.30
550;BME280;20066;48.764;9.176;2024-03-23T02:57:44;97302.25;;;13.40;54.52
550;BME280;20066;48.764;9.176;2024-03-23T03:00:10;97302.78;;;13.80;53.88
550;BME280;20066;48.764;9.176;2024-03-23T03:02:38;97300.63;;;13.59;54.19
550;BME280;20066;48.764;9.176;2024-03-23T03:05:05;97293.81;;;14.53;51.78
550;BME280;20066;48.764;9.176;2024-03-23T03:07:32;97286.72;;;14.18;52.14
550;BME280;20066;48.764;9.176;2024-03-23T03:09:58;97293.69;;;14.03;52.50
550;BME280;20066;48.764;9.176;2024-03-23T03:12:24;97285.75;;;13.96;52.98
550;BME280;20066;48.764;9.176;2024-03-23T03:14:50;97290.63;;;13.43;54.93
550;BME280;20066;48.764;9.176;2024-03-23T03:17:17;97295.03;;;14.11;53.26
550;BME280;20066;48.764;9.176;2024-03-23T03:19:43;97287.38;;;13.93;53.55
550;BME280;20066;48.764;9.176;2024-03-23T03:22:10;97284.88;;;13.99;52.73
550;BME280;20066;48.764;9.176;2024-03-23T03:24:36;97277.28;;;13.36;54.77
550;BME280;20066;48.764;9.176;2024-03-23T03:27:03;97289.16;;;13.83;53.99
550;BME280;20066;48.764;9.176;2024-03-23T03:29:29;97276.38;;;14.29;52.60
550;BME280;20066;48.764;9.176;2024-03-23T03:32:02;97264.56;;;13.20;55.04
550;BME280;20066;48.764;9.176;2024-03-23T03:34:28;97252.13;;;13.06;55.77
550;BME280;20066;48.764;9.176;2024-03-23T03:36:54;97271.78;;;14.13;53.46
550;BME280;20066;48.764;9.176;2024-03-23T03:39:20;97262.38;;;13.89;53.74
550;BME280;20066;48.764;9.176;2024-03-23T03:41:48;97265.94;;;13.86;53.84
550;BME280;20066;48.764;9.176;2024-03-23T03:44:14;97257.38;;;14.04;53.60
550;BME280;20066;48.764;9.176;2024-03-23T03:46:41;97255.66;;;14.22;52.71
550;BME280;20066;48.764;9.176;2024-03-23T03:49:06;97258.41;;;13.65;55.06
550;BME280;20066;48.764;9.176;2024-03-23T03:51:33;97252.22;;;13.93;54.20
550;BME280;20066;48.764;9.176;2024-03-23T03:53:59;97246.13;;;14.05;53.91
550;BME280;20066;48.764;9.176;2024-03-23T03:56:26;97234.78;;;13.81;54.34
550;BME280;20066;48.764;9.176;2024-03-23T03:58:53;97231.34;;;13.52;55.32
550;BME280;20066;48.764;9.176;2024-03-23T04:01:20;97212.81;;;13.67;54.69
550;BME280;20066;48.764;9.176;2024-03-23T04:03:45;97200.50;;;14.20;53.48
550;BME280;20066;48.764;9.176;2024-03-23T04:06:18;97198.69;;;14.01;54.14
550;BME280;20066;48.764;9.176;2024-03-23T04:08:44;97204.06;;;14.17;53.83
550;BME280;20066;48.764;9.176;2024-03-23T04:11:11;97193.81;;;13.83;54.45
550;BME280;20066;48.764;9.176;2024-03-23T04:13:37;97178.59;;;13.02;56.83
550;BME280;20066;48.764;9.176;2024-03-23T04:16:04;97169.03;;;13.14;57.04
550;BME280;20066;48.764;9.176;2024-03-23T04:18:29;97163.69;;;13.27;56.16
550;BME280;20066;48.764;9.176;2024-03-23T04:20:56;97170.59;;;13.57;55.55
550;BME280;20066;48.764;9.176;2024-03-23T04:23:22;97166.13;;;13.79;55.04
550;BME280;20066;48.764;9.176;2024-03-23T04:25:49;97161.94;;;13.90;54.60
550;BME280;20066;48.764;9.176;2024-03-23T04:28:15;97169.38;;;13.74;54.85
550;BME280;20066;48.764;9.176;2024-03-23T04:30:41;97173.31;;;13.98;54.40
550;BME280;20066;48.764;9.176;2024-03-23T04:33:07;97185.94;;;13.88;54.58
550;BME280;20066;48.764;9.176;2024-03-23T04:35:34;97200.38;;;14.11;53.93
550;BME280;20066;48.764;9.176;2024-03-23T04:37:59;97217.06;;;13.93;55.43
550;BME280;20066;48.764;9.176;2024-03-23T04:40:26;97229.22;;;13.60;56.27
550;BME280;20066;48.764;9.176;2024-03-23T04:42:53;97217.75;;;13.68;56.25
550;BME280;20066;48.764;9.176;2024-03-23T04:45:20;97205.94;;;13.49;57.14
550;BME280;20066;48.764;9.176;2024-03-23T04:47:47;97212.28;;;13.84;55.84
550;BME280;20066;48.764;9.176;2024-03-23T04:50:14;97225.28;;;14.18;55.58
550;BME280;20066;48.764;9.176;2024-03-23T04:52:41;97238.81;;;13.61;59.30
550;BME280;20066;48.764;9.176;2024-03-23T04:55:07;97240.75;;;14.18;58.25
550;BME280;20066;48.764;9.176;2024-03-23T04:57:33;97249.06;;;13.82;60.51
550;BME280;20066;48.764;9.176;2024-03-23T05:00:00;97263.81;;;14.48;59.41
550;BME280;20066;48.764;9.176;2024-03-23T05:02:26;97255.50;;;14.55;60.22
550;BME280;20066;48.764;9.176;2024-03-23T05:04:53;97270.56;;;13.85;64.21
550;BME280;20066;48.764;9.176;2024-03-23T05:07:22;97268.31;;;14.13;64.54
550;BME280;20066;48.764;9.176;2024-03-23T05:09:51;97274.41;;;14.01;64.37
550;BME280;20066;48.764;9.176;2024-03-23T05:12:20;97271.88;;;14.10;64.29
550;BME280;20066;48.764;9.176;2024-03-23T05:14:46;97265.16;;;13.11;68.16
550;BME280;20066;48.764;9.176;2024-03-23T05:17:16;97270.47;;;13.60;67.24
550;BME280;20066;48.764;9.176;2024-03-23T05:19:47;97271.03;;;13.23;68.90
550;BME280;20066;48.764;9.176;2024-03-23T05:22:15;97277.50;;;13.86;66.98
550;BME280;20066;48.764;9.176;2024-03-23T05:24:45;97280.94;;;13.74;67.85
550;BME280;20066;48.764;9.176;2024-03-23T05:27:12;97274.50;;;13.23;68.65
550;BME280;20066;48.764;9.176;2024-03-23T05:29:39;97273.75;;;12.54;72.40
550;BME280;20066;48.764;9.176;2024-03-23T05:32:06;97273.16;;;13.15;69.45
550;BME280;20066;48.764;9.176;2024-03-23T05:34:34;97296.53;;;11.94;73.12
550;BME280;20066;48.764;9.176;2024-03-23T05:37:02;97285.81;;;12.30;72.59
550;BME280;20066;48.764;9.176;2024-03-23T05:39:28;97290.50;;;12.46;71.28
550;BME280;20066;48.764;9.176;2024-03-23T05:41:57;97294.53;;;11.98;74.37
550;BME280;20066;48.764;9.176;2024-03-23T05:44:25;97318.41;;;11.76;73.86
550;BME280;20066;48.764;9.176;2024-03-23T05:46:54;97319.38;;;11.66;73.80
550;BME280;20066;48.764;9.176;2024-03-23T05:49:22;97330.31;;;11.79;72.24
550;BME280;20066;48.764;9.176;2024-03-23T05:51:48;97345.34;;;12.39;71.50
550;BME280;20066;48.764;9.176;2024-03-23T05:54:15;97363.06;;;12.76;70.02
550;BME280;20066;48.764;9.176;2024-03-23T05:56:48;97358.59;;;12.69;70.94
550;BME280;20066;48.764;9.176;2024-03-23T05:59:14;97353.66;;;11.62;73.20
550;BME280;20066;48.764;9.176;2024-03-23T06:01:40;97354.06;;;11.60;72.92
550;BME280;20066;48.764;9.176;2024-03-23T06:04:25;97346.81;;;11.34;72.70
550;BME280;20066;48.764;9.176;2024-03-23T06:06:57;97348.91;;;11.23;72.32
550;BME280;20066;48.764;9.176;2024-03-23T06:09:23;97355.69;;;12.01;69.43
550;BME280;20066;48.764;9.176;2024-03-23T06:12:00;97351.72;;;11.63;70.05
550;BME280;20066;48.764;9.176;2024-03-23T06:14:31;97371.03;;;11.34;70.75
550;BME280;20066;48.764;9.176;2024-03-23T06:17:04;97361.75;;;11.62;68.96
550;BME280;20066;48.764;9.176;2024-03-23T06:19:37;97372.91;;;12.07;67.56
550;BME280;20066;48.764;9.176;2024-03-23T06:22:10;97374.22;;;11.52;68.74
550;BME280;20066;48.764;9.176;2024-03-23T06:24:48;97366.28;;;11.69;67.47
550;BME280;20066;48.764;9.176;2024-03-23T06:27:13;97364.81;;;11.37;69.33
550;BME280;20066;48.764;9.176;2024-03-23T06:29:40;97374.31;;;11.45;66.77
550;BME280;20066;48.764;9.176;2024-03-23T06:32:08;97391.41;;;11.85;66.73
550;BME280;20066;48.764;9.176;2024-03-23T06:34:34;97405.91;;;10.88;67.45
550;BME280;20066;48.764;9.176;2024-03-23T06:37:03;97405.22;;;11.37;67.06
550;BME280;20066;48.764;9.176;2024-03-23T06:39:30;97426.38;;;11.62;66.53
550;BME280;20066;48.764;9.176;2024-03-23T06:42:12;97420.94;;;10.85;67.12
550;BME280;20066;48.764;9.176;2024-03-23T06:44:40;97439.28;;;11.20;66.26
550;BME280;20066;48.764;9.176;2024-03-23T06:47:12;97426.97;;;10.62;67.32
550;BME280;20066;48.764;9.176;2024-03-23T06:49:51;97442.66;;;10.98;66.35
550;BME280;20066;48.764;9.176;2024-03-23T06:52:18;97453.19;;;10.89;65.87
550;BME280;20066;48.764;9.176;2024-03-23T06:54:46;97480.38;;;10.60;65.36
550;BME280;20066;48.764;9.176;2024-03-23T06:57:12;97460.81;;;10.90;65.16
550;BME280;20066;48.764;9.176;2024-03-23T06:59:39;97466.63;;;10.89;64.92
550;BME280;20066;48.764;9.176;2024-03-23T07:02:05;97482.25;;;11.01;64.63
550;BME280;20066;48.764;9.176;2024-03-23T07:04:34;97485.47;;;10.89;65.14
550;BME280;20066;48.764;9.176;2024-03-23T07:07:00;97492.94;;;11.04;64.60
550;BME280;20066;48.764;9.176;2024-03-23T07:09:28;97483.88;;;11.21;63.44
550;BME280;20066;48.764;9.176;2024-03-23T07:11:56;97505.59;;;11.68;62.20
550;BME280;20066;48.764;9.176;2024-03-23T07:14:23;97499.97;;;12.09;61.40
550;BME280;20066;48.764;9.176;2024-03-23T07:16:50;97501.72;;;11.42;63.73
550;BME280;20066;48.764;9.176;2024-03-23T07:19:18;97506.31;;;11.42;63.15
550;BME280;20066;48.764;9.176;2024-03-23T07:21:45;97505.94;;;11.97;61.16
550;BME280;20066;48.764;9.176;2024-03-23T07:24:13;97523.41;;;11.28;62.24
550;BME280;20066;48.764;9.176;2024-03-23T07:26:39;97521.81;;;11.34;62.77
550;BME280;20066;48.764;9.176;2024-03-23T07:29:06;97510.63;;;11.36;62.54
550;BME280;20066;48.764;9.176;2024-03-23T07:31:33;97506.94;;;11.22;63.50
550;BME280;20066;48.764;9.176;2024-03-23T07:34:00;97505.34;;;11.86;61.61
550;BME280;20066;48.764;9.176;2024-03-23T07:36:26;97513.31;;;11.93;62.43
550;BME280;20066;48.764;9.176;2024-03-23T07:38:53;97515.34;;;10.60;64.49
550;BME280;20066;48.764;9.176;2024-03-23T07:41:20;97538.53;;;11.79;62.72
550;BME280;20066;48.764;9.176;2024-03-23T07:43:47;97538.97;;;11.13;62.83
550;BME280;20066;48.764;9.176;2024-03-23T07:46:15;97537.97;;;11.91;62.00
550;BME280;20066;48.764;9.176;2024-03-23T07:48:42;97538.72;;;11.35;63.47
550;BME280;20066;48.764;9.176;2024-03-23T07:51:10;97551.66;;;12.04;61.63
550;BME280;20066;48.764;9.176;2024-03-23T07:53:38;97556.44;;;11.32;64.62
550;BME280;20066;48.764;9.176;2024-03-23T07:58:30;97578.34;;;10.63;67.25
550;BME280;20066;48.764;9.176;2024-03-23T08:01:01;97563.78;;;10.05;68.54
550;BME280;20066;48.764;9.176;2024-03-23T08:03:29;97576.50;;;10.53;68.03
550;BME280;20066;48.764;9.176;2024-03-23T08:05:55;97611.75;;;10.62;67.04
550;BME280;20066;48.764;9.176;2024-03-23T08:08:22;97597.88;;;10.19;68.46
550;BME280;20066;48.764;9.176;2024-03-23T08:10:51;97628.34;;;10.53;66.96
550;BME280;20066;48.764;9.176;2024-03-23T08:13:19;97622.84;;;10.16;67.11
550;BME280;20066;48.764;9.176;2024-03-23T08:15:45;97639.88;;;10.50;67.32
550;BME280;20066;48.764;9.176;2024-03-23T08:18:12;97639.31;;;11.14;64.89
550;BME280;20066;48.764;9.176;2024-03-23T08:20:39;97622.75;;;10.78;66.96
550;BME280;20066;48.764;9.176;2024-03-23T08:23:06;97633.34;;;10.55;66.39
550;BME280;20066;48.764;9.176;2024-03-23T08:25:32;97653.13;;;11.19;64.37
550;BME280;20066;48.764;9.176;2024-03-23T08:28:00;97675.34;;;10.82;65.95
550;BME280;20066;48.764;9.176;2024-03-23T08:30:26;97671.75;;;11.41;63.19
550;BME280;20066;48.764;9.176;2024-03-23T08:32:53;97677.88;;;11.41;63.55
550;BME280;20066;48.764;9.176;2024-03-23T08:35:18;97689.75;;;12.42;61.38
550;BME280;20066;48.764;9.176;2024-03-23T08:37:45;97688.25;;;12.11;62.04
550;BME280;20066;48.764;9.176;2024-03-23T08:40:12;97699.03;;;12.37;60.48
550;BME280;20066;48.764;9.176;2024-03-23T08:42:39;97699.03;;;13.14;59.40
550;BME280;20066;48.764;9.176;2024-03-23T08:45:05;97704.84;;;13.56;56.68
550;BME280;20066;48.764;9.176;2024-03-23T08:47:36;97698.22;;;12.14;58.00
550;BME280;20066;48.764;9.176;2024-03-23T08:50:02;97691.00;;;14.29;54.03
550;BME280;20066;48.764;9.176;2024-03-23T08:52:29;97683.78;;;13.87;54.79
550;BME280;20066;48.764;9.176;2024-03-23T08:54:55;97683.41;;;13.45;54.73
550;BME280;20066;48.764;9.176;2024-03-23T08:57:23;97698.06;;;14.43;52.50
550;BME280;20066;48.764;9.176;2024-03-23T08:59:49;97703.31;;;13.55;51.73
550;BME280;20066;48.764;9.176;2024-03-23T09:02:16;97723.06;;;13.72;51.13
550;BME280;20066;48.764;9.176;2024-03-23T09:04:41;97740.34;;;13.78;51.47
550;BME280;20066;48.764;9.176;2024-03-23T09:07:08;97734.22;;;12.57;52.73
550;BME280;20066;48.764;9.176;2024-03-23T09:09:34;97745.09;;;12.23;54.40
550;BME280;20066;48.764;9.176;2024-03-23T09:12:02;97754.44;;;11.40;57.11
550;BME280;20066;48.764;9.176;2024-03-23T09:14:27;97760.06;;;11.56;58.56
550;BME280;20066;48.764;9.176;2024-03-23T09:16:55;97770.50;;;11.51;58.84
550;BME280;20066;48.764;9.176;2024-03-23T09:19:20;97782.28;;;11.23;56.14
550;BME280;20066;48.764;9.176;2024-03-23T09:21:47;97776.63;;;11.10;55.18
550;BME280;20066;48.764;9.176;2024-03-23T09:24:14;97792.53;;;11.42;53.63
550;BME280;20066;48.764;9.176;2024-03-23T09:26:41;97802.06;;;11.02;54.93
550;BME280;20066;48.764;9.176;2024-03-23T09:29:07;97815.31;;;10.72;54.57
550;BME280;20066;48.764;9.176;2024-03-23T09:31:33;97793.97;;;11.91;51.77
550;BME280;20066;48.764;9.176;2024-03-23T09:33:59;97789.66;;;11.97;50.63
550;BME280;20066;48.764;9.176;2024-03-23T09:36:27;97794.97;;;11.26;51.67
550;BME280;20066;48.764;9.176;2024-03-23T09:38:53;97792.84;;;11.48;47.92
550;BME280;20066;48.764;9.176;2024-03-23T09:41:20;97794.78;;;12.53;48.08
550;BME280;20066;48.764;9.176;2024-03-23T09:43:46;97802.38;;;11.11;49.13
550;BME280;20066;48.764;9.176;2024-03-23T09:46:14;97790.63;;;12.48;45.98
550;BME280;20066;48.764;9.176;2024-03-23T09:48:41;97781.47;;;12.08;46.20
550;BME280;20066;48.764;9.176;2024-03-23T09:51:09;97772.09;;;11.86;46.25
550;BME280;20066;48.764;9.176;2024-03-23T09:53:35;97783.75;;;11.35;46.67
550;BME280;20066;48.764;9.176;2024-03-23T09:56:03;97787.59;;;11.75;47.87
550;BME280;20066;48.764;9.176;2024-03-23T09:58:29;97790.78;;;11.66;46.29
550;BME280;20066;48.764;9.176;2024-03-23T10:00:57;97801.22;;;11.57;45.62
550;BME280;20066;48.764;9.176;2024-03-23T10:03:23;97799.91;;;11.76;45.61
550;BME280;20066;48.764;9.176;2024-03-23T10:06:03;97810.09;;;11.54;45.37
550;BME280;20066;48.764;9.176;2024-03-23T10:08:30;97806.34;;;11.89;44.30
550;BME280;20066;48.764;9.176;2024-03-23T10:11:12;97783.09;;;11.65;44.92
550;BME280;20066;48.764;9.176;2024-03-23T10:13:44;97785.81;;;12.32;44.26
550;BME280;20066;48.764;9.176;2024-03-23T10:16:12;97785.59;;;12.77;44.15
550;BME280;20066;48.764;9.176;2024-03-23T10:18:39;97768.78;;;12.05;44.42
550;BME280;20066;48.764;9.176;2024-03-23T10:23:35;97771.81;;;12.41;44.73
550;BME280;20066;48.764;9.176;2024-03-23T10:26:21;97770.50;;;11.92;45.24
550;BME280;20066;48.764;9.176;2024-03-23T10:31:30;97767.81;;;12.53;45.34
550;BME280;20066;48.764;9.176;2024-03-23T10:33:56;97767.34;;;12.88;44.38
550;BME280;20066;48.764;9.176;2024-03-23T10:36:24;97760.38;;;11.99;46.11
550;BME280;20066;48.764;9.176;2024-03-23T10:38:51;97765.25;;;11.78;46.01
550;BME280;20066;48.764;9.176;2024-03-23T10:41:19;97764.91;;;11.31;46.29
550;BME280;20066;48.764;9.176;2024-03-23T10:43:46;97755.44;;;11.94;44.91
550;BME280;20066;48.764;9.176;2024-03-23T10:46:13;97755.97;;;11.82;44.75
550;BME280;20066;48.764;9.176;2024-03-23T10:48:39;97760.09;;;12.24;46.04
550;BME280;20066;48.764;9.176;2024-03-23T10:51:07;97787.91;;;11.43;49.18
550;BME280;20066;48.764;9.176;2024-03-23T10:53:34;97796.91;;;11.67;49.41
550;BME280;20066;48.764;9.176;2024-03-23T10:56:02;97824.13;;;11.35;50.41
550;BME280;20066;48.764;9.176;2024-03-23T11:01:02;97864.72;;;8.91;60.08
550;BME280;20066;48.764;9.176;2024-03-23T11:03:33;97892.06;;;8.39;67.82
550;BME280;20066;48.764;9.176;2024-03-23T11:06:00;97897.97;;;7.49;71.14
550;BME280;20066;48.764;9.176;2024-03-23T11:08:30;97870.34;;;7.86;71.39
550;BME280;20066;48.764;9.176;2024-03-23T11:11:21;97857.22;;;8.32;69.40
550;BME280;20066;48.764;9.176;2024-03-23T11:13:52;97842.88;;;8.86;68.04
550;BME280;20066;48.764;9.176;2024-03-23T11:18:53;97842.50;;;9.58;64.34
550;BME280;20066;48.764;9.176;2024-03-23T11:21:54;97836.31;;;9.97;62.50
550;BME280;20066;48.764;9.176;2024-03-23T11:24:21;97838.00;;;10.71;58.59
550;BME280;20066;48.764;9.176;2024-03-23T11:26:48;97838.13;;;11.60;57.03
550;BME280;20066;48.764;9.176;2024-03-23T11:29:16;97831.38;;;12.23;55.88
550;BME280;20066;48.764;9.176;2024-03-23T11:31:51;97837.66;;;11.20;56.37
550;BME280;20066;48.764;9.176;2024-03-23T11:34:22;97841.28;;;12.94;54.00
550;BME280;20066;48.764;9.176;2024-03-23T11:36:48;97844.34;;;12.66;52.92
550;BME280;20066;48.764;9.176;2024-03-23T11:39:19;97833.66;;;12.86;53.70
550;BME280;20066;48.764;9.176;2024-03-23T11:41:47;97829.78;;;13.87;52.79
550;BME280;20066;48.764;9.176;2024-03-23T11:44:18;97827.19;;;14.43;49.40
550;BME280;20066;48.764;9.176;2024-03-23T11:46:45;97821.06;;;16.21;44.41
550;BME280;20066;48.764;9.176;2024-03-23T11:51:52;97824.19;;;15.90;42.26
550;BME280;20066;48.764;9.176;2024-03-23T11:54:23;97810.69;;;14.37;45.54
550;BME280;20066;48.764;9.176;2024-03-23T11:57:00;97809.06;;;14.40;47.05
550;BME280;20066;48.764;9.176;2024-03-23T11:59:38;97808.50;;;12.96;47.59
550;BME280;20066;48.764;9.176;2024-03-23T12:02:12;97798.47;;;12.66;47.17
550;BME280;20066;48.764;9.176;2024-03-23T12:04:43;97808.13;;;11.13;48.24
550;BME280;20066;48.764;9.176;2024-03-23T12:07:20;97808.16;;;11.10;49.95
550;BME280;20066;48.764;9.176;2024-03-23T12:10:05;97814.16;;;12.44;46.54
550;BME280;20066;48.764;9.176;2024-03-23T12:12:31;97796.94;;;12.04;46.76
550;BME280;20066;48.764;9.176;2024-03-23T12:15:06;97802.72;;;13.21;44.71
550;BME280;20066;48.764;9.176;2024-03-23T12:17:34;97807.03;;;11.96;46.30
550;BME280;20066;48.764;9.176;2024-03-23T12:20:01;97799.56;;;12.08;45.17
550;BME280;20066;48.764;9.176;2024-03-23T12:22:28;97800.28;;;11.33;47.02
550;BME280;20066;48.764;9.176;2024-03-23T12:24:55;97797.78;;;11.53;46.93
550;BME280;20066;48.764;9.176;2024-03-23T12:27:20;97799.25;;;11.61;45.53
550;BME280;20066;48.764;9.176;2024-03-23T12:29:47;97792.78;;;11.55;46.11
550;BME280;20066;48.764;9.176;2024-03-23T12:32:13;97785.03;;;13.39;41.95
550;BME280;20066;48.764;9.176;2024-03-23T12:34:41;97797.06;;;14.01;40.88
550;BME280;20066;48.764;9.176;2024-03-23T12:37:07;97801.75;;;13.31;41.06
550;BME280;20066;48.764;9.176;2024-03-23T12:39:34;97782.94;;;12.13;42.88
550;BME280;20066;48.764;9.176;2024-03-23T12:42:01;97776.84;;;12.39;43.28
550;BME280;20066;48.764;9.176;2024-03-23T12:44:29;97787.41;;;11.92;43.87
550;BME280;20066;48.764;9.176;2024-03-23T12:46:55;97787.34;;;11.66;44.87
550;BME280;20066;48.764;9.176;2024-03-23T12:49:22;97784.16;;;12.08;44.37
550;BME280;20066;48.764;9.176;2024-03-23T12:51:55;97813.66;;;10.96;46.66
550;BME280;20066;48.764;9.176;2024-03-23T12:54:22;97792.63;;;10.76;46.27
550;BME280;20066;48.764;9.176;2024-03-23T12:56:49;97795.41;;;11.17;46.39
550;BME280;20066;48.764;9.176;2024-03-23T12:59:16;97796.16;;;10.59;46.92
550;BME280;20066;48.764;9.176;2024-03-23T13:01:42;97783.84;;;11.20;46.48
550;BME280;20066;48.764;9.176;2024-03-23T13:04:09;97781.66;;;12.24;44.21
550;BME280;20066;48.764;9.176;2024-03-23T13:06:36;97768.41;;;13.41;42.94
550;BME280;20066;48.764;9.176;2024-03-23T13:09:03;97776.84;;;12.39;44.54
550;BME280;20066;48.764;9.176;2024-03-23T13:11:30;97774.66;;;12.88;43.62
550;BME280;20066;48.764;9.176;2024-03-23T13:13:56;97766.94;;;11.98;44.42
550;BME280;20066;48.764;9.176;2024-03-23T13:16:22;97773.84;;;13.61;43.12
550;BME280;20066;48.764;9.176;2024-03-23T13:18:49;97770.47;;;14.55;40.48
550;BME280;20066;48.764;9.176;2024-03-23T13:21:15;97769.34;;;13.54;42.10
550;BME280;20066;48.764;9.176;2024-03-23T13:23:42;97764.53;;;12.38;44.34
550;BME280;20066;48.764;9.176;2024-03-23T13:26:11;97764.91;;;12.10;45.63
550;BME280;20066;48.764;9.176;2024-03-23T13:28:37;97754.38;;;13.03;44.08
550;BME280;20066;48.764;9.176;2024-03-23T13:31:03;97744.22;;;13.97;41.73
550;BME280;20066;48.764;9.176;2024-03-23T13:33:30;97727.09;;;12.70;42.77
550;BME280;20066;48.764;9.176;2024-03-23T13:35:58;97717.56;;;11.75;42.51
550;BME280;20066;48.764;9.176;2024-03-23T13:38:25;97720.00;;;12.26;41.58
550;BME280;20066;48.764;9.176;2024-03-23T13:43:19;97710.75;;;14.46;34.84
550;BME280;20066;48.764;9.176;2024-03-23T13:45:49;97750.41;;;14.37;34.33
550;BME280;20066;48.764;9.176;2024-03-23T13:48:20;97728.03;;;14.52;34.00
550;BME280;20066;48.764;9.176;2024-03-23T13:50:47;97733.97;;;14.27;35.00
550;BME280;20066;48.764;9.176;2024-03-23T13:53:14;97727.63;;;13.55;35.67
550;BME280;20066;48.764;9.176;2024-03-23T13:55:47;97727.81;;;14.07;34.68
550;BME280;20066;48.764;9.176;2024-03-23T13:58:15;97749.59;;;13.57;35.06
550;BME280;20066;48.764;9.176;2024-03-23T14:00:41;97730.03;;;12.80;37.46
550;BME280;20066;48.764;9.176;2024-03-23T14:03:09;97726.31;;;11.82;40.26
550;BME280;20066;48.764;9.176;2024-03-23T14:05:34;97749.84;;;11.37;41.68
550;BME280;20066;48.764;9.176;2024-03-23T14:08:01;97744.97;;;12.00;44.44
550;BME280;20066;48.764;9.176;2024-03-23T14:10:28;97750.75;;;12.59;43.18
550;BME280;20066;48.764;9.176;2024-03-23T14:12:55;97767.72;;;12.29;45.04
550;BME280;20066;48.764;9.176;2024-03-23T14:15:21;97788.72;;;11.36;46.56
550;BME280;20066;48.764;9.176;2024-03-23T14:17:48;97778.00;;;9.94;53.61
550;BME280;20066;48.764;9.176;2024-03-23T14:22:41;97791.84;;;9.82;57.19
550;BME280;20066;48.764;9.176;2024-03-23T14:25:07;97800.34;;;9.48;57.80
550;BME280;20066;48.764;9.176;2024-03-23T14:27:34;97809.69;;;10.45;56.48
550;BME280;20066;48.764;9.176;2024-03-23T14:30:04;97809.34;;;11.05;56.41
550;BME280;20066;48.764;9.176;2024-03-23T14:32:31;97768.13;;;8.81;58.68
550;BME280;20066;48.764;9.176;2024-03-23T14:35:00;97758.81;;;11.23;54.36
550;BME280;20066;48.764;9.176;2024-03-23T14:37:26;97743.94;;;12.21;49.97